Terminal Aerodrome Forecast
Issued by NWS Wilmington, NC

Home | Current Version | Previous Version | Text Only | Print | Product List | Glossary On
Versions: 1 2 3 4 5 6 7 8 9 10 11 12 13 14 15 16
000
FTUS42 KILM 101700
TAFMYR
TAF
KMYR 101723Z 1018/1118 19016KT P6SM SCT030 SCT120
      TEMPO 1100/1104 VRB15G25KT 3SM TSRA BKN030CB
     FM111400 19008KT P6SM VCTS BKN050CB=

USA.gov is the U.S. government's official web portal to all federal, state and local government web resources and services.